Saint Bonnet de Bellac- Haute Vienne - France
Donnes mto: jeudi, 02/02/2012
Date Horaire Temp. E. Hum. E. P.atmo. Pluie Vent Direction Direction Ensoleilleme Solaire P. de rose Temp au vent Rafales
02/02/2012 00:00 -3,7 C 78 % 1017,5 hPa 0,0 mm 6,8 km/h (2 Bft) N-NE 22 0 min 0 W/m -7,0 C -6,6 C 8,3 km/h (2 Bft)
02/02/2012 00:10 -3,7 C 78 % 1017,7 hPa 0,0 mm 8,3 km/h (2 Bft) N-NE 22 0 min 0 W/m -7,0 C -7,2 C 10,8 km/h (2 Bft)
02/02/2012 00:20 -3,7 C 78 % 1017,6 hPa 0,0 mm 13,7 km/h (3 Bft) N-NE 22 0 min 0 W/m -7,0 C -8,7 C 13,7 km/h (3 Bft)
02/02/2012 00:30 -3,8 C 78 % 1017,7 hPa 0,0 mm 8,6 km/h (2 Bft) N-NE 22 0 min 0 W/m -7,1 C -7,4 C 10,8 km/h (2 Bft)
02/02/2012 00:40 -3,8 C 78 % 1017,6 hPa 0,0 mm 6,8 km/h (2 Bft) E-NE 67 0 min 0 W/m -7,1 C -6,7 C 8,6 km/h (2 Bft)
02/02/2012 00:50 -3,9 C 77 % 1017,8 hPa 0,0 mm 11,5 km/h (2 Bft) N-NE 22 0 min 0 W/m -7,3 C -8,4 C 16,2 km/h (3 Bft)
02/02/2012 01:00 -3,9 C 76 % 1018,0 hPa 0,0 mm 11,9 km/h (2 Bft) N-NE 22 0 min 0 W/m -7,5 C -8,5 C 11,9 km/h (2 Bft)
02/02/2012 01:10 -3,9 C 76 % 1018,0 hPa 0,0 mm 12,6 km/h (3 Bft) N-NE 22 0 min 0 W/m -7,5 C -8,7 C 12,6 km/h (3 Bft)
02/02/2012 01:20 -4,0 C 76 % 1018,0 hPa 0,0 mm 8,6 km/h (2 Bft) N 360 0 min 0 W/m -7,6 C -7,6 C 9,7 km/h (2 Bft)
02/02/2012 01:30 -4,0 C 76 % 1017,8 hPa 0,0 mm 9,4 km/h (2 Bft) N-NE 22 0 min 0 W/m -7,6 C -7,9 C 11,2 km/h (2 Bft)
02/02/2012 01:40 -4,1 C 76 % 1017,9 hPa 0,0 mm 18,7 km/h (3 Bft) N 360 0 min 0 W/m -7,7 C -10,2 C 32,4 km/h (5 Bft)
02/02/2012 01:50 -4,1 C 76 % 1017,9 hPa 0,0 mm 9,0 km/h (2 Bft) NE 45 0 min 0 W/m -7,7 C -7,9 C 9,4 km/h (2 Bft)
02/02/2012 02:02 -4,1 C 76 % 1017,9 hPa 0,0 mm 10,1 km/h (2 Bft) N-NE 22 0 min 0 W/m -7,7 C -8,2 C 10,1 km/h (2 Bft)
02/02/2012 02:10 -4,2 C 76 % 1017,8 hPa 0,0 mm 9,4 km/h (2 Bft) NE 45 0 min 0 W/m -7,8 C -8,1 C 12,2 km/h (2 Bft)
02/02/2012 02:20 -4,2 C 75 % 1017,8 hPa 0,0 mm 11,5 km/h (2 Bft) N-NE 22 0 min 0 W/m -8,0 C -8,8 C 11,5 km/h (2 Bft)
02/02/2012 02:30 -4,2 C 75 % 1017,8 hPa 0,0 mm 9,4 km/h (2 Bft) NE 45 0 min 0 W/m -8,0 C -8,1 C 10,4 km/h (2 Bft)
02/02/2012 02:40 -4,2 C 77 % 1017,8 hPa 0,0 mm 10,1 km/h (2 Bft) N-NE 22 0 min 0 W/m -7,6 C -8,4 C 15,1 km/h (3 Bft)
02/02/2012 02:50 -4,3 C 78 % 1018,0 hPa 0,0 mm 7,6 km/h (2 Bft) NE 45 0 min 0 W/m -7,5 C -7,6 C 9,4 km/h (2 Bft)
02/02/2012 03:00 -4,4 C 79 % 1018,0 hPa 0,0 mm 9,0 km/h (2 Bft) N-NE 22 0 min 0 W/m -7,5 C -8,3 C 18,4 km/h (3 Bft)
02/02/2012 03:10 -4,4 C 80 % 1017,9 hPa 0,0 mm 9,7 km/h (2 Bft) N 360 0 min 0 W/m -7,3 C -8,5 C 12,2 km/h (2 Bft)
02/02/2012 03:20 -4,5 C 80 % 1017,9 hPa 0,0 mm 9,7 km/h (2 Bft) N-NE 22 0 min 0 W/m -7,4 C -8,6 C 15,1 km/h (3 Bft)
02/02/2012 03:30 -4,5 C 81 % 1017,8 hPa 0,0 mm 11,9 km/h (2 Bft) N-NE 22 0 min 0 W/m -7,3 C -9,2 C 15,1 km/h (3 Bft)
02/02/2012 03:40 -4,6 C 81 % 1017,7 hPa 0,0 mm 9,7 km/h (2 Bft) NE 45 0 min 0 W/m -7,4 C -8,7 C 15,5 km/h (3 Bft)
02/02/2012 03:50 -4,6 C 81 % 1017,8 hPa 0,0 mm 15,1 km/h (3 Bft) NE 45 0 min 0 W/m -7,4 C -10,1 C 17,6 km/h (3 Bft)
02/02/2012 04:00 -4,7 C 81 % 1017,8 hPa 0,0 mm 15,5 km/h (3 Bft) N-NE 22 0 min 0 W/m -7,4 C -10,3 C 24,1 km/h (4 Bft)
02/02/2012 04:10 -4,7 C 81 % 1017,8 hPa 0,0 mm 12,2 km/h (2 Bft) N-NE 22 0 min 0 W/m -7,4 C -9,5 C 17,6 km/h (3 Bft)
02/02/2012 04:20 -4,8 C 81 % 1017,8 hPa 0,0 mm 12,6 km/h (3 Bft) N-NE 22 0 min 0 W/m -7,5 C -9,8 C 23,0 km/h (4 Bft)
02/02/2012 04:30 -4,9 C 81 % 1017,8 hPa 0,0 mm 15,8 km/h (3 Bft) N-NE 22 0 min 0 W/m -7,6 C -10,6 C 23,4 km/h (4 Bft)
02/02/2012 04:40 -4,9 C 80 % 1017,7 hPa 0,0 mm 9,4 km/h (2 Bft) E-NE 67 0 min 0 W/m -7,8 C -9,0 C 13,7 km/h (3 Bft)
02/02/2012 04:50 -5,1 C 80 % 1017,7 hPa 0,0 mm 11,9 km/h (2 Bft) NE 45 0 min 0 W/m -8,0 C -10,0 C 17,6 km/h (3 Bft)
02/02/2012 05:00 -5,2 C 80 % 1017,7 hPa 0,0 mm 16,6 km/h (3 Bft) N 360 0 min 0 W/m -8,1 C -11,2 C 19,4 km/h (3 Bft)
02/02/2012 05:10 -5,4 C 79 % 1017,9 hPa 0,0 mm 12,2 km/h (2 Bft) NE 45 0 min 0 W/m -8,5 C -10,4 C 19,4 km/h (3 Bft)
02/02/2012 05:20 -5,6 C 79 % 1017,9 hPa 0,0 mm 16,2 km/h (3 Bft) E-NE 67 0 min 0 W/m -8,6 C -11,6 C 20,5 km/h (4 Bft)
02/02/2012 05:30 -5,9 C 79 % 1017,9 hPa 0,0 mm 13,0 km/h (3 Bft) NE 45 0 min 0 W/m -8,9 C -11,2 C 17,3 km/h (3 Bft)
02/02/2012 05:40 -6,1 C 80 % 1018,0 hPa 0,0 mm 6,8 km/h (2 Bft) NE 45 0 min 0 W/m -9,0 C -9,4 C 9,4 km/h (2 Bft)
02/02/2012 05:50 -6,2 C 80 % 1018,0 hPa 0,0 mm 14,0 km/h (3 Bft) N-NE 22 0 min 0 W/m -9,1 C -11,8 C 21,2 km/h (4 Bft)
02/02/2012 06:00 -6,4 C 80 % 1018,2 hPa 0,0 mm 11,2 km/h (2 Bft) NE 45 0 min 0 W/m -9,3 C -11,3 C 22,0 km/h (4 Bft)
02/02/2012 06:10 -6,5 C 81 % 1018,2 hPa 0,0 mm 7,2 km/h (2 Bft) N-NE 22 0 min 0 W/m -9,2 C -10,0 C 13,0 km/h (3 Bft)
02/02/2012 06:20 -6,6 C 81 % 1018,2 hPa 0,0 mm 10,4 km/h (2 Bft) N-NE 22 0 min 0 W/m -9,3 C -11,3 C 10,8 km/h (2 Bft)
02/02/2012 06:30 -6,7 C 81 % 1018,3 hPa 0,0 mm 8,3 km/h (2 Bft) N 360 0 min 0 W/m -9,4 C -10,7 C 13,3 km/h (3 Bft)
02/02/2012 06:40 -6,8 C 81 % 1018,2 hPa 0,0 mm 11,2 km/h (2 Bft) N-NE 22 0 min 0 W/m -9,5 C -11,8 C 15,1 km/h (3 Bft)
02/02/2012 06:50 -6,9 C 81 % 1018,3 hPa 0,0 mm 12,2 km/h (2 Bft) N-NE 22 0 min 0 W/m -9,6 C -12,2 C 18,0 km/h (3 Bft)
02/02/2012 07:00 -6,9 C 81 % 1018,3 hPa 0,0 mm 10,4 km/h (2 Bft) N-NE 22 0 min 0 W/m -9,6 C -11,7 C 10,8 km/h (2 Bft)
02/02/2012 07:10 -7,1 C 81 % 1018,4 hPa 0,0 mm 7,2 km/h (2 Bft) N 360 0 min 0 W/m -9,8 C -10,7 C 13,0 km/h (3 Bft)
02/02/2012 07:20 -7,1 C 81 % 1018,5 hPa 0,0 mm 10,1 km/h (2 Bft) N-NE 22 0 min 0 W/m -9,8 C -11,8 C 13,3 km/h (3 Bft)
02/02/2012 07:30 -7,2 C 81 % 1018,6 hPa 0,0 mm 5,8 km/h (2 Bft) N-NE 22 0 min 0 W/m -9,9 C -10,2 C 5,8 km/h (2 Bft)
02/02/2012 07:40 -7,2 C 81 % 1018,5 hPa 0,0 mm 4,0 km/h (1 Bft) N 360 0 min 0 W/m -9,9 C -7,2 C 7,9 km/h (2 Bft)
02/02/2012 07:50 -7,4 C 81 % 1018,6 hPa 0,0 mm 12,2 km/h (2 Bft) N-NO 337 0 min 0 W/m -10,1 C -12,8 C 19,1 km/h (3 Bft)
02/02/2012 08:00 -7,4 C 80 % 1018,6 hPa 0,0 mm 7,9 km/h (2 Bft) N-NE 22 0 min 0 W/m -10,2 C -11,4 C 9,7 km/h (2 Bft)
02/02/2012 08:10 -7,4 C 80 % 1018,6 hPa 0,0 mm 15,1 km/h (3 Bft) N-NE 22 0 min 0 W/m -10,2 C -13,6 C 19,8 km/h (3 Bft)
02/02/2012 08:20 -7,4 C 80 % 1018,8 hPa 0,0 mm 7,9 km/h (2 Bft) N-NE 22 0 min 0 W/m -10,2 C -11,4 C 12,2 km/h (2 Bft)
02/02/2012 08:30 -7,5 C 80 % 1018,8 hPa 0,0 mm 11,5 km/h (2 Bft) N-NE 22 2 min 0 W/m -10,3 C -12,7 C 11,5 km/h (2 Bft)
02/02/2012 08:40 -7,5 C 80 % 1019,0 hPa 0,0 mm 10,4 km/h (2 Bft) NE 45 2 min 0 W/m -10,3 C -12,4 C 18,4 km/h (3 Bft)
02/02/2012 08:50 -7,5 C 80 % 1019,2 hPa 0,0 mm 7,6 km/h (2 Bft) E 90 2 min 0 W/m -10,3 C -11,4 C 11,2 km/h (2 Bft)
02/02/2012 09:00 -7,4 C 80 % 1019,1 hPa 0,0 mm 15,8 km/h (3 Bft) NE 45 2 min 0 W/m -10,2 C -13,7 C 26,6 km/h (4 Bft)
02/02/2012 09:10 -7,2 C 80 % 1019,0 hPa 0,0 mm 15,8 km/h (3 Bft) N-NE 22 2 min 0 W/m -10,0 C -13,5 C 21,6 km/h (4 Bft)
02/02/2012 09:20 -6,9 C 79 % 1019,0 hPa 0,0 mm 9,4 km/h (2 Bft) N-NE 22 2 min 0 W/m -9,9 C -11,4 C 10,4 km/h (2 Bft)
02/02/2012 09:30 -6,7 C 78 % 1019,1 hPa 0,0 mm 14,4 km/h (3 Bft) N-NE 22 2 min 0 W/m -9,9 C -12,5 C 20,2 km/h (4 Bft)
02/02/2012 09:40 -6,5 C 77 % 1019,5 hPa 0,0 mm 9,0 km/h (2 Bft) N-NE 22 2 min 0 W/m -9,8 C -10,7 C 13,7 km/h (3 Bft)
02/02/2012 09:50 -6,2 C 77 % 1019,7 hPa 0,0 mm 11,9 km/h (2 Bft) N 360 2 min 0 W/m -9,6 C -11,3 C 12,2 km/h (2 Bft)
02/02/2012 10:00 -6,0 C 75 % 1019,6 hPa 0,0 mm 9,7 km/h (2 Bft) N 360 2 min 0 W/m -9,7 C -10,4 C 15,1 km/h (3 Bft)
02/02/2012 10:10 -5,7 C 74 % 1019,7 hPa 0,0 mm 8,3 km/h (2 Bft) N-NE 22 2 min 0 W/m -9,6 C -9,5 C 9,7 km/h (2 Bft)
02/02/2012 10:20 -5,6 C 73 % 1019,7 hPa 0,0 mm 13,7 km/h (3 Bft) NE 45 2 min 0 W/m -9,6 C -11,0 C 21,6 km/h (4 Bft)
02/02/2012 10:30 -5,4 C 73 % 1019,8 hPa 0,0 mm 10,4 km/h (2 Bft) N 360 2 min 0 W/m -9,5 C -9,9 C 18,0 km/h (3 Bft)
02/02/2012 10:40 -5,2 C 72 % 1019,8 hPa 0,0 mm 22,3 km/h (4 Bft) N-NE 22 2 min 0 W/m -9,4 C -12,2 C 27,0 km/h (5 Bft)
02/02/2012 10:50 -5,2 C 71 % 1020,0 hPa 0,0 mm 10,4 km/h (2 Bft) N 360 2 min 0 W/m -9,6 C -9,6 C 13,7 km/h (3 Bft)
02/02/2012 11:00 -5,4 C 71 % 1020,1 hPa 0,0 mm 14,4 km/h (3 Bft) NE 45 2 min 0 W/m -9,8 C -10,9 C 18,4 km/h (3 Bft)
02/02/2012 11:10 -5,8 C 72 % 1020,1 hPa 0,0 mm 6,8 km/h (2 Bft) NE 45 2 min 0 W/m -10,0 C -9,1 C 11,2 km/h (2 Bft)
02/02/2012 11:20 -6,1 C 72 % 1020,1 hPa 0,0 mm 13,3 km/h (3 Bft) NE 45 2 min 0 W/m -10,3 C -11,5 C 18,7 km/h (3 Bft)
02/02/2012 11:30 -6,3 C 73 % 1020,3 hPa 0,0 mm 13,0 km/h (3 Bft) NE 45 2 min 0 W/m -10,3 C -11,7 C 13,0 km/h (3 Bft)
02/02/2012 11:40 -6,3 C 73 % 1020,4 hPa 0,0 mm 9,0 km/h (2 Bft) N 360 2 min 0 W/m -10,3 C -10,5 C 12,6 km/h (3 Bft)
02/02/2012 11:50 -6,2 C 73 % 1020,4 hPa 0,0 mm 7,9 km/h (2 Bft) N-NE 22 2 min 0 W/m -10,2 C -10,0 C 15,1 km/h (3 Bft)
02/02/2012 12:00 -6,2 C 73 % 1020,4 hPa 0,0 mm 10,8 km/h (2 Bft) N-NE 22 2 min 0 W/m -10,2 C -11,0 C 10,8 km/h (2 Bft)
02/02/2012 12:10 -6,2 C 74 % 1020,3 hPa 0,0 mm 10,4 km/h (2 Bft) N-NE 22 2 min 0 W/m -10,1 C -10,8 C 12,6 km/h (3 Bft)
02/02/2012 12:20 -6,2 C 74 % 1020,2 hPa 0,0 mm 11,5 km/h (2 Bft) NE 45 2 min 0 W/m -10,1 C -11,2 C 16,6 km/h (3 Bft)
02/02/2012 12:30 -6,2 C 73 % 1020,2 hPa 0,0 mm 12,6 km/h (3 Bft) NE 45 2 min 0 W/m -10,2 C -11,5 C 16,6 km/h (3 Bft)
02/02/2012 12:40 -6,2 C 73 % 1020,0 hPa 0,0 mm 6,8 km/h (2 Bft) E-NE 67 2 min 0 W/m -10,2 C -9,5 C 13,0 km/h (3 Bft)
02/02/2012 12:50 -6,1 C 73 % 1019,9 hPa 0,0 mm 12,6 km/h (3 Bft) NE 45 2 min 0 W/m -10,1 C -11,4 C 14,8 km/h (3 Bft)
02/02/2012 13:00 -6,0 C 74 % 1019,9 hPa 0,0 mm 13,0 km/h (3 Bft) N-NE 22 2 min 0 W/m -9,9 C -11,3 C 20,9 km/h (4 Bft)
02/02/2012 13:10 -5,6 C 74 % 1020,0 hPa 0,0 mm 8,6 km/h (2 Bft) N-NE 22 2 min 0 W/m -9,5 C -9,5 C 9,4 km/h (2 Bft)
02/02/2012 13:20 -5,2 C 73 % 1020,0 hPa 0,0 mm 10,8 km/h (2 Bft) N-NE 22 2 min 0 W/m -9,3 C -9,8 C 15,1 km/h (3 Bft)
02/02/2012 13:30 -5,1 C 73 % 1019,8 hPa 0,0 mm 9,0 km/h (2 Bft) NE 45 2 min 0 W/m -9,2 C -9,1 C 13,0 km/h (3 Bft)
02/02/2012 13:40 -5,1 C 72 % 1019,8 hPa 0,0 mm 9,4 km/h (2 Bft) N-NE 22 2 min 0 W/m -9,3 C -9,2 C 14,0 km/h (3 Bft)
02/02/2012 13:50 -5,1 C 72 % 1019,8 hPa 0,0 mm 6,8 km/h (2 Bft) NE 45 2 min 0 W/m -9,3 C -8,2 C 10,1 km/h (2 Bft)
02/02/2012 14:00 -5,2 C 72 % 1019,8 hPa 0,0 mm 11,5 km/h (2 Bft) E-NE 67 2 min 0 W/m -9,4 C -10,0 C 17,6 km/h (3 Bft)
02/02/2012 14:10 -5,2 C 72 % 1019,7 hPa 0,0 mm 12,6 km/h (3 Bft) NE 45 2 min 0 W/m -9,4 C -10,3 C 19,8 km/h (3 Bft)
02/02/2012 14:20 -5,4 C 72 % 1019,5 hPa 0,0 mm 9,7 km/h (2 Bft) N 360 2 min 0 W/m -9,6 C -9,7 C 13,7 km/h (3 Bft)
02/02/2012 14:30 -5,2 C 72 % 1019,6 hPa 0,0 mm 8,3 km/h (2 Bft) N-NE 22 2 min 0 W/m -9,4 C -9,0 C 8,3 km/h (2 Bft)
02/02/2012 14:40 -5,1 C 72 % 1019,7 hPa 0,0 mm 8,3 km/h (2 Bft) NE 45 2 min 0 W/m -9,3 C -8,8 C 10,4 km/h (2 Bft)
02/02/2012 14:50 -4,9 C 72 % 1019,7 hPa 0,0 mm 17,3 km/h (3 Bft) NE 45 2 min 0 W/m -9,1 C -10,9 C 31,3 km/h (5 Bft)
02/02/2012 15:00 -4,7 C 72 % 1019,7 hPa 0,0 mm 10,8 km/h (2 Bft) NE 45 2 min 0 W/m -9,0 C -9,2 C 16,6 km/h (3 Bft)
02/02/2012 15:10 -4,6 C 71 % 1019,7 hPa 0,0 mm 7,9 km/h (2 Bft) N-NE 22 2 min 0 W/m -9,0 C -8,1 C 8,6 km/h (2 Bft)
02/02/2012 15:20 -4,6 C 71 % 1019,6 hPa 0,0 mm 9,7 km/h (2 Bft) NE 45 2 min 0 W/m -9,0 C -8,7 C 10,8 km/h (2 Bft)
02/02/2012 15:30 -4,6 C 72 % 1019,6 hPa 0,0 mm 10,8 km/h (2 Bft) N 360 2 min 0 W/m -8,9 C -9,0 C 15,5 km/h (3 Bft)
02/02/2012 15:40 -4,4 C 72 % 1019,7 hPa 0,0 mm 9,0 km/h (2 Bft) E-NE 67 2 min 0 W/m -8,7 C -8,3 C 12,6 km/h (3 Bft)
02/02/2012 15:50 -4,2 C 71 % 1019,7 hPa 0,0 mm 7,6 km/h (2 Bft) NE 45 2 min 0 W/m -8,7 C -7,5 C 11,2 km/h (2 Bft)
02/02/2012 16:00 -4,3 C 70 % 1019,8 hPa 0,0 mm 11,9 km/h (2 Bft) NE 45 2 min 0 W/m -8,9 C -9,0 C 20,5 km/h (4 Bft)
02/02/2012 16:10 -4,4 C 70 % 1019,8 hPa 0,0 mm 7,9 km/h (2 Bft) NE 45 2 min 0 W/m -9,0 C -7,9 C 12,2 km/h (2 Bft)
02/02/2012 16:20 -4,4 C 71 % 1019,9 hPa 0,0 mm 10,4 km/h (2 Bft) N-NE 22 2 min 0 W/m -8,8 C -8,7 C 13,0 km/h (3 Bft)
02/02/2012 16:30 -4,3 C 70 % 1019,8 hPa 0,0 mm 15,8 km/h (3 Bft) N-NE 22 2 min 0 W/m -8,9 C -9,9 C 22,0 km/h (4 Bft)
02/02/2012 16:40 -4,2 C 70 % 1019,8 hPa 0,0 mm 11,9 km/h (2 Bft) N-NE 22 2 min 0 W/m -8,8 C -8,9 C 18,4 km/h (3 Bft)
02/02/2012 16:50 -4,2 C 69 % 1019,9 hPa 0,0 mm 8,3 km/h (2 Bft) NE 45 2 min 0 W/m -9,0 C -7,8 C 11,9 km/h (2 Bft)
02/02/2012 17:00 -4,2 C 69 % 1019,9 hPa 0,0 mm 5,8 km/h (2 Bft) NE 45 2 min 0 W/m -9,0 C -6,8 C 9,7 km/h (2 Bft)
02/02/2012 17:10 -4,2 C 69 % 1019,9 hPa 0,0 mm 11,2 km/h (2 Bft) N-NE 22 2 min 0 W/m -9,0 C -8,7 C 15,8 km/h (3 Bft)
02/02/2012 17:20 -4,2 C 69 % 1019,9 hPa 0,0 mm 13,0 km/h (3 Bft) N-NE 22 2 min 0 W/m -9,0 C -9,1 C 20,2 km/h (4 Bft)
02/02/2012 17:30 -4,2 C 69 % 1020,1 hPa 0,0 mm 9,4 km/h (2 Bft) NE 45 2 min 0 W/m -9,0 C -8,1 C 15,1 km/h (3 Bft)
02/02/2012 17:40 -4,4 C 69 % 1020,3 hPa 0,0 mm 6,1 km/h (2 Bft) NE 45 2 min 0 W/m -9,2 C -7,1 C 10,8 km/h (2 Bft)
02/02/2012 17:50 -4,5 C 69 % 1020,4 hPa 0,0 mm 6,8 km/h (2 Bft) NE 45 2 min 0 W/m -9,3 C -7,6 C 6,8 km/h (2 Bft)
02/02/2012 18:00 -4,6 C 70 % 1020,5 hPa 0,0 mm 6,8 km/h (2 Bft) N-NE 22 0 min 0 W/m -9,2 C -7,7 C 12,6 km/h (3 Bft)
02/02/2012 18:10 -4,8 C 70 % 1020,6 hPa 0,0 mm 6,1 km/h (2 Bft) NE 45 0 min 0 W/m -9,4 C -7,6 C 6,1 km/h (2 Bft)
02/02/2012 18:20 -4,9 C 70 % 1020,8 hPa 0,0 mm 9,4 km/h (2 Bft) NE 45 0 min 0 W/m -9,5 C -9,0 C 10,8 km/h (2 Bft)
02/02/2012 18:30 -5,1 C 70 % 1020,9 hPa 0,0 mm 9,0 km/h (2 Bft) NE 45 0 min 0 W/m -9,7 C -9,1 C 10,1 km/h (2 Bft)
02/02/2012 18:40 -5,2 C 70 % 1021,1 hPa 0,0 mm 10,1 km/h (2 Bft) N-NE 22 0 min 0 W/m -9,8 C -9,6 C 10,1 km/h (2 Bft)
02/02/2012 18:50 -5,3 C 70 % 1021,1 hPa 0,0 mm 4,7 km/h (1 Bft) N-NE 22 0 min 0 W/m -9,9 C -7,4 C 4,7 km/h (1 Bft)
02/02/2012 19:00 -5,4 C 70 % 1021,4 hPa 0,0 mm 5,8 km/h (2 Bft) N-NE 22 0 min 0 W/m -10,0 C -8,1 C 6,1 km/h (2 Bft)
02/02/2012 19:10 -5,5 C 71 % 1021,5 hPa 0,0 mm 5,0 km/h (1 Bft) N-NE 22 0 min 0 W/m -9,9 C -7,8 C 7,6 km/h (2 Bft)
02/02/2012 19:20 -5,6 C 71 % 1021,5 hPa 0,0 mm 6,5 km/h (2 Bft) NE 45 0 min 0 W/m -10,0 C -8,7 C 9,0 km/h (2 Bft)
02/02/2012 19:30 -5,7 C 72 % 1021,5 hPa 0,0 mm 8,3 km/h (2 Bft) NE 45 0 min 0 W/m -9,9 C -9,5 C 11,5 km/h (2 Bft)
02/02/2012 19:40 -5,8 C 72 % 1021,7 hPa 0,0 mm 5,0 km/h (1 Bft) NE 45 0 min 0 W/m -10,0 C -8,2 C 9,7 km/h (2 Bft)
02/02/2012 19:50 -5,9 C 72 % 1021,6 hPa 0,0 mm 6,8 km/h (2 Bft) NE 45 0 min 0 W/m -10,1 C -9,2 C 10,8 km/h (2 Bft)
02/02/2012 20:00 -6,0 C 72 % 1021,7 hPa 0,0 mm 9,0 km/h (2 Bft) N-NE 22 0 min 0 W/m -10,2 C -10,2 C 15,1 km/h (3 Bft)
02/02/2012 20:10 -6,1 C 72 % 1021,8 hPa 0,0 mm 6,5 km/h (2 Bft) NE 45 0 min 0 W/m -10,3 C -9,3 C 7,9 km/h (2 Bft)
02/02/2012 20:20 -6,2 C 73 % 1021,9 hPa 0,0 mm 7,2 km/h (2 Bft) N-NE 22 0 min 0 W/m -10,2 C -9,7 C 8,3 km/h (2 Bft)
02/02/2012 20:30 -6,2 C 73 % 1022,0 hPa 0,0 mm 5,4 km/h (2 Bft) NE 45 0 min 0 W/m -10,2 C -8,8 C 7,9 km/h (2 Bft)
02/02/2012 20:40 -6,2 C 73 % 1022,1 hPa 0,0 mm 4,0 km/h (1 Bft) NE 45 0 min 0 W/m -10,2 C -6,2 C 8,6 km/h (2 Bft)
02/02/2012 20:50 -6,3 C 73 % 1022,2 hPa 0,0 mm 5,4 km/h (2 Bft) N-NE 22 0 min 0 W/m -10,3 C -9,0 C 9,7 km/h (2 Bft)
02/02/2012 21:00 -6,3 C 73 % 1022,3 hPa 0,0 mm 6,5 km/h (2 Bft) N-NE 22 0 min 0 W/m -10,3 C -9,5 C 9,0 km/h (2 Bft)
02/02/2012 21:10 -6,3 C 73 % 1022,3 hPa 0,0 mm 8,3 km/h (2 Bft) N-NE 22 0 min 0 W/m -10,3 C -10,3 C 10,8 km/h (2 Bft)
02/02/2012 21:20 -6,4 C 73 % 1022,5 hPa 0,0 mm 6,1 km/h (2 Bft) N-NE 22 0 min 0 W/m -10,4 C -9,4 C 9,7 km/h (2 Bft)
02/02/2012 21:30 -6,5 C 74 % 1022,6 hPa 0,0 mm 2,5 km/h (1 Bft) N-NE 22 0 min 0 W/m -10,3 C -6,5 C 4,0 km/h (1 Bft)
02/02/2012 21:40 -6,7 C 74 % 1022,7 hPa 0,0 mm 4,7 km/h (1 Bft) NE 45 0 min 0 W/m -10,5 C -9,0 C 6,8 km/h (2 Bft)
02/02/2012 21:50 -6,8 C 74 % 1022,7 hPa 0,0 mm 4,0 km/h (1 Bft) N-NE 22 0 min 0 W/m -10,6 C -6,8 C 6,5 km/h (2 Bft)
02/02/2012 22:00 -7,0 C 75 % 1022,8 hPa 0,0 mm 5,8 km/h (2 Bft) NE 45 0 min 0 W/m -10,7 C -10,0 C 7,9 km/h (2 Bft)
02/02/2012 22:10 -7,1 C 75 % 1023,0 hPa 0,0 mm 6,8 km/h (2 Bft) N 360 0 min 0 W/m -10,8 C -10,6 C 9,0 km/h (2 Bft)
02/02/2012 22:20 -7,2 C 76 % 1023,0 hPa 0,0 mm 7,2 km/h (2 Bft) N 360 0 min 0 W/m -10,7 C -10,9 C 9,0 km/h (2 Bft)
02/02/2012 22:30 -7,2 C 76 % 1023,0 hPa 0,0 mm 6,8 km/h (2 Bft) NE 45 0 min 0 W/m -10,7 C -10,7 C 11,2 km/h (2 Bft)
02/02/2012 22:40 -7,2 C 76 % 1023,0 hPa 0,0 mm 7,2 km/h (2 Bft) N 360 0 min 0 W/m -10,7 C -10,9 C 7,2 km/h (2 Bft)
02/02/2012 22:50 -7,2 C 77 % 1023,1 hPa 0,0 mm 7,6 km/h (2 Bft) N-NE 22 0 min 0 W/m -10,5 C -11,0 C 9,0 km/h (2 Bft)
02/02/2012 23:00 -7,4 C 77 % 1023,2 hPa 0,0 mm 4,3 km/h (1 Bft) E-NE 67 0 min 0 W/m -10,7 C -7,4 C 7,9 km/h (2 Bft)
02/02/2012 23:10 -7,4 C 77 % 1023,2 hPa 0,0 mm 6,5 km/h (2 Bft) N-NE 22 0 min 0 W/m -10,7 C -10,8 C 9,4 km/h (2 Bft)
02/02/2012 23:20 -7,4 C 77 % 1023,4 hPa 0,0 mm 10,8 km/h (2 Bft) N 360 0 min 0 W/m -10,7 C -12,4 C 16,2 km/h (3 Bft)
02/02/2012 23:30 -7,2 C 77 % 1023,5 hPa 0,0 mm 7,2 km/h (2 Bft) N-NE 22 0 min 0 W/m -10,5 C -10,9 C 9,0 km/h (2 Bft)
02/02/2012 23:40 -7,2 C 77 % 1023,7 hPa 0,0 mm 8,6 km/h (2 Bft) E-NE 67 0 min 0 W/m -10,5 C -11,4 C 9,4 km/h (2 Bft)
_ Min-Heure 08:50 17:50 00:00 - 21:30 - - - - 22:10 09:00 21:30
Minimum _ -7,5 C 69 % 1017,5 hPa - 2,5 km/h (1 Bft) - - - - -10,8 C -13,7 C 4,0 km/h (1 Bft)
_ Max-Heure 00:20 07:50 23:40 23:40 10:40 - - 17:50 23:40 00:20 20:40 01:40
Maximum _ -3,7 C 81 % 1023,7 hPa 0,0 mm 22,3 km/h
N-NE (4 Bft)
- - 2 min 0 W/m -7,0 C -6,2 C 32,4 km/h
N (5 Bft)
Moyenne _ -5,6 C 75 % 1019,7 hPa #0,0 mm 9,7 km/h (2 Bft) N-NE - #1:54 h 0 W/m -9,3 C -9,7 C 13,5 km/h (3 Bft)
Saint Bonnet de Bellac- Haute Vienne - France